Terminal Aerodrome Forecast
Issued by NWS

Home | Current Version | Previous Version | Text Only | Print | Product List | Glossary On
Versions: 1 2 3 4 5 6 7 8 9 10 11 12 13 14 15 16 17 18 19 20 21 22 23 24 25 26 27 28 29 30 31 32 33 34 35 36 37 38 39 40
000
FTUS45 KGJT 041735 AAA
TAFEGE
TAF AMD
KEGE 041735Z 0418/0518 VRB03KT P6SM FEW090
     FM042000 23005KT P6SM SCT100
     FM050300 22007KT P6SM BKN100
     FM051400 24010KT P6SM OVC050=

USA.gov is the U.S. government's official web portal to all federal, state and local government web resources and services.